Time;durP1;ratioP1;P1;durP2;ratioP2;P2;SDS_P1;SDS_P2;PMS_P1;PMS_P2;Temp;Humidity;BMP_temperature;BMP_pressure;BME280_temperature;BME280_humidity;BME280_pressure;Samples;Min_cycle;Max_cycle;Signal;HPM_P1;HPM_P2
2021/10/10 00:00:52;;;;;;;23.90;15.88;;;9.40;99.90;;;;;;5013803;28;20050;-79
2021/10/10 00:03:19;;;;;;;23.65;15.45;;;9.40;99.90;;;;;;5012834;28;20117;-79
2021/10/10 00:05:46;;;;;;;19.27;14.70;;;9.40;99.90;;;;;;5013064;28;20052;-77
2021/10/10 00:08:15;;;;;;;22.95;16.42;;;9.40;99.90;;;;;;5013339;28;20490;-79
2021/10/10 00:10:41;;;;;;;24.80;15.25;;;9.30;99.90;;;;;;5013362;28;20205;-79
2021/10/10 00:13:08;;;;;;;23.55;15.50;;;9.30;99.90;;;;;;5013933;28;20060;-80
2021/10/10 00:15:35;;;;;;;21.67;16.33;;;9.30;99.90;;;;;;5013649;28;20502;-78
2021/10/10 00:18:02;;;;;;;19.35;15.07;;;9.20;99.90;;;;;;5012577;28;20049;-80
2021/10/10 00:20:38;;;;;;;27.05;16.30;;;9.20;99.90;;;;;;5012289;28;20141;-78
2021/10/10 00:23:05;;;;;;;24.88;16.50;;;9.10;99.90;;;;;;5012383;28;20133;-78
2021/10/10 00:25:33;;;;;;;24.27;16.27;;;9.10;99.90;;;;;;5012477;28;20518;-77
2021/10/10 00:28:00;;;;;;;25.00;16.55;;;9.10;99.90;;;;;;5012594;28;20057;-77
2021/10/10 00:30:27;;;;;;;24.50;16.75;;;9.10;99.90;;;;;;5012757;28;20106;-77
2021/10/10 00:32:54;;;;;;;22.00;16.30;;;9.10;99.90;;;;;;5012977;28;20140;-78
2021/10/10 00:35:21;;;;;;;24.98;16.77;;;9.10;99.90;;;;;;5012578;28;20113;-78
2021/10/10 00:37:48;;;;;;;24.60;16.13;;;9.00;99.90;;;;;;5012764;28;20137;-77
2021/10/10 00:40:15;;;;;;;22.10;16.05;;;9.00;99.90;;;;;;5012563;28;20133;-77
2021/10/10 00:42:43;;;;;;;22.20;15.75;;;9.00;99.90;;;;;;5012084;28;20050;-78
2021/10/10 00:45:11;;;;;;;24.55;17.27;;;9.00;99.90;;;;;;5012765;28;20068;-78
2021/10/10 00:47:38;;;;;;;22.83;16.52;;;9.00;99.90;;;;;;5012336;28;20046;-78
2021/10/10 00:50:06;;;;;;;24.30;16.13;;;9.00;99.90;;;;;;5012406;28;20113;-77
2021/10/10 00:52:37;;;;;;;22.75;16.17;;;9.00;99.90;;;;;;5012038;28;20070;-78
2021/10/10 00:55:04;;;;;;;22.92;17.00;;;8.90;99.90;;;;;;5012371;28;20058;-78
2021/10/10 00:57:32;;;;;;;25.05;16.73;;;8.90;99.90;;;;;;5012481;28;20049;-77
2021/10/10 01:00:05;;;;;;;22.60;16.55;;;8.90;99.90;;;;;;5012737;28;20056;-77
2021/10/10 01:02:32;;;;;;;22.85;16.27;;;8.90;99.90;;;;;;5012441;28;20050;-78
2021/10/10 01:04:59;;;;;;;21.30;16.95;;;8.80;99.90;;;;;;5012070;28;20483;-78
2021/10/10 01:07:27;;;;;;;22.67;16.33;;;8.80;99.90;;;;;;5012732;28;20054;-78
2021/10/10 01:09:54;;;;;;;24.90;16.88;;;8.80;99.90;;;;;;5012899;28;20062;-78
2021/10/10 01:12:23;;;;;;;22.13;16.23;;;8.80;99.90;;;;;;5013191;28;20147;-79
2021/10/10 01:14:50;;;;;;;21.23;16.65;;;8.80;99.90;;;;;;5015541;28;20065;-78
2021/10/10 01:17:18;;;;;;;22.42;16.65;;;8.70;99.90;;;;;;5016280;28;20056;-79
2021/10/10 01:19:47;;;;;;;24.70;19.80;;;8.70;99.90;;;;;;5016703;28;20053;-78
2021/10/10 01:22:16;;;;;;;25.35;18.63;;;8.70;99.90;;;;;;5015879;28;20481;-77
2021/10/10 01:24:42;;;;;;;25.38;19.08;;;8.70;99.90;;;;;;5015906;28;20092;-77
2021/10/10 01:27:09;;;;;;;28.20;23.08;;;8.70;99.90;;;;;;5014949;28;20049;-77
2021/10/10 01:29:36;;;;;;;29.10;21.80;;;8.60;99.90;;;;;;5015851;28;20164;-78
2021/10/10 01:32:03;;;;;;;27.10;20.58;;;8.60;99.90;;;;;;5015859;28;20047;-78
2021/10/10 01:34:30;;;;;;;25.55;20.42;;;8.60;99.90;;;;;;5015776;28;20141;-78
2021/10/10 01:36:57;;;;;;;24.92;19.25;;;8.50;99.90;;;;;;5015724;28;20138;-78
2021/10/10 01:39:28;;;;;;;25.63;18.98;;;8.50;99.90;;;;;;5015666;28;20050;-78
2021/10/10 01:41:55;;;;;;;23.17;18.00;;;8.50;99.90;;;;;;5015379;28;20034;-79
2021/10/10 01:44:21;;;;;;;21.38;17.48;;;8.50;99.90;;;;;;5015370;28;20050;-78
2021/10/10 01:46:48;;;;;;;24.90;18.83;;;8.50;99.90;;;;;;5015213;28;20067;-78
2021/10/10 01:49:15;;;;;;;25.67;20.42;;;8.40;99.90;;;;;;5014687;28;20387;-78
2021/10/10 01:51:43;;;;;;;26.00;19.92;;;8.40;99.90;;;;;;5015145;28;20137;-78
2021/10/10 01:54:10;;;;;;;27.45;19.77;;;8.40;99.90;;;;;;5015276;28;20057;-79
2021/10/10 01:56:38;;;;;;;27.95;19.80;;;8.30;99.90;;;;;;5016151;28;20136;-78
2021/10/10 01:59:05;;;;;;;24.52;17.95;;;8.30;99.90;;;;;;5016289;28;20144;-79
2021/10/10 02:01:32;;;;;;;23.63;17.88;;;8.30;99.90;;;;;;5016213;28;20128;-78
2021/10/10 02:03:59;;;;;;;27.08;17.88;;;8.20;99.90;;;;;;5015945;28;20129;-79
2021/10/10 02:06:26;;;;;;;24.50;17.38;;;8.10;99.90;;;;;;5015722;28;20062;-78
2021/10/10 02:08:53;;;;;;;25.63;18.20;;;8.10;99.90;;;;;;5014031;28;20530;-78
2021/10/10 02:11:20;;;;;;;24.52;18.63;;;8.00;99.90;;;;;;5014506;28;20054;-78
2021/10/10 02:13:48;;;;;;;26.38;18.70;;;8.00;99.90;;;;;;5015837;28;20065;-79
2021/10/10 02:16:15;;;;;;;24.02;17.77;;;8.00;99.90;;;;;;5016908;28;20050;-81
2021/10/10 02:18:41;;;;;;;26.83;19.08;;;7.90;99.90;;;;;;5016706;28;20134;-79
2021/10/10 02:21:08;;;;;;;28.83;19.27;;;8.00;99.90;;;;;;5017077;28;20049;-79
2021/10/10 02:23:35;;;;;;;25.85;18.02;;;7.80;99.90;;;;;;5016711;28;20136;-80
2021/10/10 02:26:02;;;;;;;28.58;19.65;;;7.80;99.90;;;;;;5017036;28;20064;-78
2021/10/10 02:28:29;;;;;;;27.20;20.25;;;7.80;99.90;;;;;;5015505;28;20053;-78
2021/10/10 02:30:57;;;;;;;24.65;18.90;;;7.80;99.90;;;;;;5015467;28;20125;-77
2021/10/10 02:33:24;;;;;;;28.20;20.90;;;7.80;99.90;;;;;;5014409;28;20052;-76
2021/10/10 02:35:51;;;;;;;26.67;20.45;;;7.80;99.90;;;;;;5014277;28;20056;-77
2021/10/10 02:38:18;;;;;;;33.80;24.42;;;7.80;99.90;;;;;;5014234;28;20153;-77
2021/10/10 02:40:45;;;;;;;41.85;26.85;;;7.80;99.90;;;;;;5013529;28;20052;-77
2021/10/10 03:12:46;;;;;;;29.27;21.80;;;6.70;99.90;;;;;;5106293;27;20401;-78
2021/10/10 03:15:13;;;;;;;26.10;19.75;;;7.70;99.90;;;;;;5092485;28;20071;-78
2021/10/10 03:17:40;;;;;;;27.55;20.00;;;7.70;99.90;;;;;;5094005;28;20131;-79
2021/10/10 03:20:08;;;;;;;30.10;20.42;;;7.60;99.90;;;;;;5093122;28;20098;-78
2021/10/10 03:22:35;;;;;;;24.45;19.13;;;7.60;99.90;;;;;;5093720;28;20109;-78
2021/10/10 03:25:02;;;;;;;29.92;19.65;;;7.50;99.90;;;;;;5094496;28;20052;-78
2021/10/10 03:27:32;;;;;;;31.50;19.98;;;7.50;99.90;;;;;;5130843;22;20048;-80
2021/10/10 03:30:00;;;;;;;25.95;19.15;;;7.50;99.90;;;;;;5110166;28;20083;-80
2021/10/10 03:32:27;;;;;;;29.75;20.05;;;7.40;99.90;;;;;;5114613;28;20048;-80
2021/10/10 03:34:54;;;;;;;25.58;19.55;;;7.30;99.90;;;;;;5115229;28;20047;-80
2021/10/10 03:37:21;;;;;;;31.50;20.33;;;7.30;99.90;;;;;;5115566;28;20105;-79
2021/10/10 03:39:48;;;;;;;28.92;20.50;;;7.30;99.90;;;;;;5115489;28;20134;-80
2021/10/10 03:42:14;;;;;;;30.27;19.88;;;7.30;99.90;;;;;;5111773;28;20086;-79
2021/10/10 03:44:41;;;;;;;30.52;19.40;;;7.30;99.90;;;;;;5123945;28;20051;-79
2021/10/10 03:47:12;;;;;;;28.35;19.13;;;7.30;99.90;;;;;;5126698;28;20047;-79
2021/10/10 03:49:41;;;;;;;30.15;19.80;;;7.20;99.90;;;;;;5126574;28;20044;-80
2021/10/10 03:52:09;;;;;;;29.80;19.88;;;7.20;99.90;;;;;;5125727;28;20470;-84
2021/10/10 03:58:00;;;;;;;27.17;18.50;;;7.20;99.90;;;;;;5125902;28;20050;-83
2021/10/10 04:00:28;;;;;;;26.52;18.73;;;7.10;99.90;;;;;;5122015;28;20051;-79
2021/10/10 04:03:02;;;;;;;24.65;18.83;;;7.10;99.90;;;;;;5123613;28;20047;-80
2021/10/10 04:05:39;;;;;;;30.63;18.80;;;7.00;99.90;;;;;;5121779;28;20051;-81
2021/10/10 04:08:06;;;;;;;28.98;19.15;;;7.00;99.90;;;;;;5125045;28;20048;-78
2021/10/10 04:10:33;;;;;;;26.02;17.45;;;6.90;99.90;;;;;;5122202;28;20068;-80
2021/10/10 04:13:00;;;;;;;25.23;19.13;;;6.90;99.90;;;;;;5121538;28;20059;-80
2021/10/10 04:15:27;;;;;;;28.48;19.13;;;6.90;99.90;;;;;;5111980;28;20048;-78
2021/10/10 04:17:54;;;;;;;27.40;18.80;;;6.90;99.90;;;;;;5100906;28;20592;-79
2021/10/10 04:20:22;;;;;;;28.40;19.45;;;6.90;99.90;;;;;;5105665;28;20048;-78
2021/10/10 04:22:49;;;;;;;27.05;18.77;;;6.90;99.90;;;;;;5101185;28;20058;-78
2021/10/10 04:25:16;;;;;;;25.90;18.05;;;6.80;99.90;;;;;;5103759;28;20116;-79
2021/10/10 04:27:43;;;;;;;31.30;19.98;;;6.80;99.90;;;;;;5103467;28;20116;-79
2021/10/10 04:30:14;;;;;;;29.60;19.70;;;6.70;99.90;;;;;;5102385;28;20588;-79
2021/10/10 04:32:42;;;;;;;30.42;19.17;;;6.70;99.90;;;;;;5101677;28;20127;-79
2021/10/10 04:35:09;;;;;;;29.60;19.17;;;6.60;99.90;;;;;;5101609;28;20071;-79
2021/10/10 04:37:38;;;;;;;27.13;19.25;;;6.60;99.90;;;;;;5102070;28;20086;-79
2021/10/10 04:40:06;;;;;;;28.00;19.42;;;6.60;99.90;;;;;;5102356;28;20588;-79
2021/10/10 04:42:34;;;;;;;30.52;20.55;;;6.70;99.90;;;;;;5101084;28;20129;-79
2021/10/10 04:45:01;;;;;;;29.95;19.70;;;6.70;99.90;;;;;;5101205;28;20058;-79
2021/10/10 04:47:27;;;;;;;28.65;19.85;;;6.70;99.90;;;;;;5101543;28;20139;-79
2021/10/10 04:49:54;;;;;;;27.15;18.90;;;6.70;99.90;;;;;;5102434;28;20048;-78
2021/10/10 04:52:21;;;;;;;28.38;20.15;;;6.70;99.90;;;;;;5099952;28;20140;-79
2021/10/10 04:54:49;;;;;;;25.42;19.95;;;6.70;99.90;;;;;;5101608;28;20143;-80
2021/10/10 04:57:16;;;;;;;28.92;20.60;;;6.70;99.90;;;;;;5102446;28;20083;-79
2021/10/10 04:59:49;;;;;;;31.50;20.63;;;6.70;99.90;;;;;;5101567;28;20108;-80
2021/10/10 05:02:16;;;;;;;;;;;6.70;99.90;;;;;;5100704;28;20055;-79
2021/10/10 05:04:43;;;;;;;32.88;21.05;;;6.60;99.90;;;;;;5099931;28;20455;-80
2021/10/10 05:07:10;;;;;;;33.13;21.92;;;6.50;99.90;;;;;;5099785;28;20104;-80
2021/10/10 05:09:37;;;;;;;37.58;23.00;;;6.60;99.90;;;;;;5103395;28;20341;-79
2021/10/10 05:12:05;;;;;;;34.70;21.52;;;6.60;99.90;;;;;;5108996;28;20131;-80
2021/10/10 05:14:32;;;;;;;32.15;22.15;;;6.60;99.90;;;;;;5108813;28;20080;-80
2021/10/10 05:16:59;;;;;;;32.13;21.77;;;6.60;99.90;;;;;;5109080;28;20047;-80
2021/10/10 05:19:26;;;;;;;30.45;21.27;;;6.50;99.90;;;;;;5109436;28;20071;-78
2021/10/10 05:21:53;;;;;;;30.83;22.30;;;6.50;99.90;;;;;;5109242;28;20083;-78
2021/10/10 05:24:20;;;;;;;31.77;21.00;;;6.50;99.90;;;;;;5108494;28;20086;-80
2021/10/10 05:26:47;;;;;;;31.08;20.98;;;6.40;99.90;;;;;;5108574;28;20043;-82
2021/10/10 05:29:15;;;;;;;34.35;22.65;;;6.50;99.90;;;;;;5109015;28;20047;-81
2021/10/10 05:31:42;;;;;;;34.03;21.80;;;6.50;99.90;;;;;;5109083;28;20087;-81
2021/10/10 05:34:09;;;;;;;30.88;20.92;;;6.50;99.90;;;;;;5107678;28;20103;-80
2021/10/10 05:36:36;;;;;;;31.88;22.02;;;6.40;99.90;;;;;;5108459;28;20135;-80
2021/10/10 05:39:04;;;;;;;36.05;23.02;;;6.40;99.90;;;;;;5108375;28;20036;-81
2021/10/10 05:41:31;;;;;;;33.58;22.45;;;6.40;99.90;;;;;;5108220;28;20071;-80
2021/10/10 05:43:57;;;;;;;31.55;21.23;;;6.40;99.90;;;;;;5107126;28;20071;-79
2021/10/10 05:46:26;;;;;;;33.75;21.83;;;6.40;99.90;;;;;;5103054;28;20079;-79
2021/10/10 05:48:52;;;;;;;35.40;22.10;;;6.40;99.90;;;;;;5101993;28;20091;-80
2021/10/10 05:51:19;;;;;;;34.35;22.10;;;6.40;99.90;;;;;;5101055;28;20044;-80
2021/10/10 05:53:46;;;;;;;30.95;21.73;;;6.40;99.90;;;;;;5100024;28;20135;-80
2021/10/10 05:56:15;;;;;;;32.00;21.52;;;6.40;99.90;;;;;;5099199;28;20056;-80
2021/10/10 05:58:44;;;;;;;30.67;20.80;;;6.40;99.90;;;;;;5098868;28;20048;-80
2021/10/10 06:01:11;;;;;;;32.30;21.65;;;6.30;99.90;;;;;;5097745;28;20070;-80
2021/10/10 06:03:39;;;;;;;33.78;22.52;;;6.30;99.90;;;;;;5076201;28;20518;-80
2021/10/10 06:06:06;;;;;;;32.33;21.75;;;6.30;99.90;;;;;;5076936;28;20139;-81
2021/10/10 06:08:33;;;;;;;35.05;22.23;;;6.30;99.90;;;;;;5077161;28;20140;-80
2021/10/10 06:10:59;;;;;;;32.92;21.77;;;6.30;99.90;;;;;;5076789;28;20071;-79
2021/10/10 06:13:27;;;;;;;32.58;22.05;;;6.30;99.90;;;;;;5075963;28;20048;-82
2021/10/10 06:15:54;;;;;;;32.88;20.80;;;6.30;99.90;;;;;;5090690;28;20126;-79
2021/10/10 06:18:22;;;;;;;31.73;21.27;;;6.30;99.90;;;;;;5096878;28;20063;-81
2021/10/10 06:20:50;;;;;;;30.95;22.27;;;6.30;99.90;;;;;;5099020;28;20044;-81
2021/10/10 06:23:17;;;;;;;31.25;21.73;;;6.30;99.90;;;;;;5098788;28;20544;-80
2021/10/10 06:25:44;;;;;;;31.50;20.88;;;6.30;99.90;;;;;;5100229;28;20109;-79
2021/10/10 06:28:11;;;;;;;32.45;21.65;;;6.40;99.90;;;;;;5096793;28;20126;-80
2021/10/10 06:30:38;;;;;;;30.23;20.77;;;6.60;99.90;;;;;;5095108;28;20051;-80
2021/10/10 06:33:04;;;;;;;31.05;20.38;;;6.80;99.90;;;;;;5094914;28;20050;-81
2021/10/10 06:35:32;;;;;;;26.25;18.65;;;7.20;99.90;;;;;;5087476;28;20433;-82
2021/10/10 06:38:00;;;;;;;28.40;19.45;;;7.40;99.90;;;;;;5075448;28;20052;-79
2021/10/10 06:40:27;;;;;;;28.90;18.45;;;7.50;99.90;;;;;;5075333;28;20131;-78
2021/10/10 06:42:54;;;;;;;24.60;18.02;;;7.80;99.90;;;;;;5075699;28;20080;-80
2021/10/10 06:45:21;;;;;;;26.50;18.90;;;8.00;99.90;;;;;;5075564;28;20084;-80
2021/10/10 06:47:48;;;;;;;28.63;18.23;;;8.20;99.90;;;;;;5075457;28;20044;-80
2021/10/10 06:50:15;;;;;;;24.85;16.60;;;8.30;99.90;;;;;;5076618;28;20060;-82
2021/10/10 06:52:42;;;;;;;27.20;17.70;;;8.50;99.90;;;;;;5078234;28;20119;-82
2021/10/10 06:55:15;;;;;;;27.98;18.15;;;8.80;99.90;;;;;;5082761;28;20139;-81
2021/10/10 06:57:42;;;;;;;27.20;17.23;;;9.00;99.90;;;;;;5074970;28;20519;-80
2021/10/10 07:00:10;;;;;;;25.88;17.80;;;9.20;99.90;;;;;;5070751;28;20131;-81
2021/10/10 07:02:42;;;;;;;25.77;18.40;;;9.40;99.90;;;;;;5074168;28;20147;-80
2021/10/10 07:05:10;;;;;;;25.73;18.67;;;9.50;99.90;;;;;;5076884;28;20063;-81
2021/10/10 07:19:41;;;;;;;23.13;16.52;;;10.10;99.90;;;;;;5034920;28;20062;-79
2021/10/10 07:22:15;;;;;;;26.13;17.85;;;10.20;99.90;;;;;;5035998;28;20049;-78
2021/10/10 07:24:57;;;;;;;26.73;18.15;;;10.40;99.90;;;;;;5031531;28;20061;-79
2021/10/10 07:27:24;;;;;;;23.20;18.40;;;10.60;99.90;;;;;;5039355;28;20104;-79
2021/10/10 07:32:31;;;;;;;23.75;18.15;;;11.00;99.90;;;;;;4707765;26;20040;-78
2021/10/10 07:35:56;;;;;;;22.08;17.30;;;11.30;99.90;;;;;;5092680;28;20056;-78
2021/10/10 07:38:46;;;;;;;;;;;;;;;;;;;;;
2021/10/10 07:47:15;;;;;;;25.67;18.77;;;12.10;99.90;;;;;;5083584;28;20184;-78
2021/10/10 07:49:43;;;;;;;27.40;19.50;;;12.20;99.90;;;;;;5095694;28;20122;-79
2021/10/10 07:52:15;;;;;;;23.27;17.98;;;12.30;99.90;;;;;;5095582;28;20048;-79
2021/10/10 07:54:42;;;;;;;27.10;18.45;;;12.50;99.90;;;;;;5095166;28;20507;-78
2021/10/10 07:57:12;;;;;;;25.23;18.35;;;12.70;99.90;;;;;;5095657;28;20048;-78
2021/10/10 08:02:15;;;;;;;26.17;17.70;;;12.40;99.90;;;;;;5095790;28;20047;-78
2021/10/10 08:04:41;;;;;;;20.33;16.70;;;12.70;99.90;;;;;;5099150;28;20121;-79
2021/10/10 08:07:18;;;;;;;28.13;18.75;;;12.50;99.90;;;;;;5097879;28;20072;-78
2021/10/10 08:09:45;;;;;;;27.92;18.40;;;12.50;99.90;;;;;;5098760;28;20084;-79
2021/10/10 08:12:12;;;;;;;25.25;18.80;;;12.60;99.90;;;;;;5099550;28;20090;-79
2021/10/10 08:14:39;;;;;;;24.98;18.73;;;12.70;99.90;;;;;;5101472;28;20047;-79
2021/10/10 08:17:06;;;;;;;22.73;17.00;;;12.90;99.90;;;;;;5102081;28;20083;-79
2021/10/10 08:19:33;;;;;;;25.95;17.88;;;13.00;99.90;;;;;;5101948;28;20135;-80
2021/10/10 08:22:00;;;;;;;24.95;17.55;;;13.20;99.90;;;;;;5101987;28;20054;-79
2021/10/10 08:24:30;;;;;;;22.80;17.27;;;13.30;99.90;;;;;;5102481;28;20071;-80
2021/10/10 08:26:56;;;;;;;22.45;18.27;;;13.40;99.90;;;;;;5102237;28;20048;-80
2021/10/10 08:29:23;;;;;;;23.35;17.77;;;13.40;99.90;;;;;;5101477;28;20080;-79
2021/10/10 08:31:50;;;;;;;27.75;18.25;;;13.50;99.90;;;;;;5101927;28;20041;-78
2021/10/10 08:34:17;;;;;;;24.98;18.13;;;13.80;99.90;;;;;;5102752;28;20075;-79
2021/10/10 08:36:44;;;;;;;24.23;17.02;;;13.80;99.90;;;;;;5102260;28;20082;-79
2021/10/10 08:39:11;;;;;;;23.50;17.25;;;13.70;99.90;;;;;;5101335;28;20504;-80
2021/10/10 08:41:41;;;;;;;26.27;17.38;;;13.90;99.90;;;;;;5100908;28;20083;-79
2021/10/10 08:44:11;;;;;;;23.30;17.80;;;13.90;99.90;;;;;;5100524;28;20066;-79
2021/10/10 08:46:39;;;;;;;27.25;18.13;;;14.10;99.90;;;;;;5101051;28;20051;-79
2021/10/10 08:49:06;;;;;;;25.00;18.13;;;14.20;99.90;;;;;;5100513;28;20455;-80
2021/10/10 08:51:35;;;;;;;21.42;16.75;;;14.10;99.90;;;;;;5101007;28;20048;-79
2021/10/10 08:54:02;;;;;;;24.83;18.30;;;13.80;99.90;;;;;;5100159;28;20054;-79
2021/10/10 08:56:29;;;;;;;24.40;19.05;;;13.40;99.90;;;;;;5100047;28;20055;-80
2021/10/10 08:58:57;;;;;;;25.90;18.27;;;13.10;99.90;;;;;;5099766;28;20135;-79
2021/10/10 09:01:30;;;;;;;26.25;19.35;;;12.80;99.90;;;;;;5098904;28;20112;-79
2021/10/10 09:03:57;;;;;;;26.05;19.42;;;12.40;99.90;;;;;;5099277;28;20052;-79
2021/10/10 09:06:25;;;;;;;24.23;19.13;;;12.30;99.90;;;;;;5100113;28;20062;-79
2021/10/10 09:08:53;;;;;;;29.92;19.60;;;12.10;99.90;;;;;;5099360;28;20520;-79
2021/10/10 09:11:20;;;;;;;26.08;19.40;;;12.20;99.90;;;;;;5099118;28;20052;-80
2021/10/10 09:13:48;;;;;;;26.50;18.95;;;12.10;99.90;;;;;;5098781;28;20131;-78
2021/10/10 09:16:16;;;;;;;25.80;19.40;;;12.00;99.90;;;;;;5098072;28;20043;-79
2021/10/10 09:18:45;;;;;;;26.02;19.00;;;12.00;99.90;;;;;;5097240;28;20134;-79
2021/10/10 09:21:19;;;;;;;26.35;19.65;;;11.90;99.90;;;;;;5097604;28;20066;-80
2021/10/10 09:23:48;;;;;;;27.50;19.27;;;11.90;99.90;;;;;;5097559;28;20119;-79
2021/10/10 09:26:15;;;;;;;23.70;18.83;;;12.10;99.90;;;;;;5098210;28;20127;-79
2021/10/10 09:28:43;;;;;;;27.25;19.52;;;12.20;99.90;;;;;;5098516;28;20139;-79
2021/10/10 09:31:10;;;;;;;24.23;18.10;;;12.10;99.90;;;;;;5100782;28;20573;-80
2021/10/10 09:33:41;;;;;;;23.52;18.65;;;12.20;99.90;;;;;;5109910;28;20044;-78
2021/10/10 09:36:15;;;;;;;28.15;19.02;;;12.30;99.90;;;;;;5107332;28;20130;-78
2021/10/10 09:38:45;;;;;;;27.83;19.98;;;12.30;99.90;;;;;;5098558;28;20055;-78
2021/10/10 09:41:21;;;;;;;25.00;19.13;;;12.40;99.90;;;;;;5097625;28;20171;-80
2021/10/10 09:44:08;;;;;;;26.30;18.52;;;12.40;99.90;;;;;;5097542;28;20417;-79
2021/10/10 09:46:38;;;;;;;24.70;18.50;;;12.50;99.90;;;;;;5098202;28;20105;-79
2021/10/10 09:49:21;;;;;;;26.70;18.35;;;12.60;99.90;;;;;;5098038;28;20054;-79
2021/10/10 09:51:48;;;;;;;25.90;18.58;;;12.70;99.90;;;;;;5097419;28;20506;-80
2021/10/10 09:54:15;;;;;;;22.67;17.38;;;12.70;99.90;;;;;;5097819;28;20048;-79
2021/10/10 09:57:02;;;;;;;25.58;17.85;;;12.70;99.90;;;;;;5098939;28;20131;-80
2021/10/10 09:59:29;;;;;;;25.67;18.35;;;12.80;99.90;;;;;;5098095;28;20048;-79
2021/10/10 10:01:56;;;;;;;21.38;17.10;;;12.90;99.90;;;;;;5097718;28;20052;-79
2021/10/10 10:04:24;;;;;;;25.63;18.83;;;13.10;99.90;;;;;;5098458;28;20098;-80
2021/10/10 10:06:53;;;;;;;19.95;17.00;;;13.30;99.90;;;;;;5099044;28;20127;-79
2021/10/10 10:09:20;;;;;;;22.55;17.70;;;13.50;99.90;;;;;;5100859;28;20135;-80
2021/10/10 10:11:48;;;;;;;22.75;17.02;;;13.70;99.90;;;;;;5101181;28;20145;-78
2021/10/10 10:14:16;;;;;;;24.92;16.98;;;13.80;99.90;;;;;;5100046;28;20126;-80
2021/10/10 10:16:44;;;;;;;23.08;17.38;;;13.90;99.90;;;;;;5099542;28;20131;-80
2021/10/10 10:19:15;;;;;;;24.02;17.85;;;14.00;99.90;;;;;;5098554;28;20143;-79
2021/10/10 10:21:45;;;;;;;23.27;18.55;;;14.00;99.90;;;;;;5099025;28;20056;-79
2021/10/10 10:24:12;;;;;;;25.20;18.35;;;14.00;99.90;;;;;;5098904;28;20402;-79
2021/10/10 10:26:40;;;;;;;23.10;17.92;;;14.10;99.90;;;;;;5098683;28;20131;-79
2021/10/10 10:29:13;;;;;;;23.63;18.02;;;14.10;99.90;;;;;;5095872;28;20134;-77
2021/10/10 10:31:44;;;;;;;24.95;17.63;;;14.20;99.90;;;;;;5097156;28;20112;-80
2021/10/10 10:34:22;;;;;;;25.13;17.55;;;14.20;99.90;;;;;;5097794;28;20051;-75
2021/10/10 10:36:59;;;;;;;21.95;17.75;;;14.30;99.90;;;;;;5093328;28;20493;-77
2021/10/10 10:39:41;;;;;;;23.52;17.42;;;14.30;99.90;;;;;;5093832;28;20299;-79
2021/10/10 10:42:09;;;;;;;23.10;16.75;;;14.40;99.90;;;;;;5094469;28;20058;-79
2021/10/10 10:44:41;;;;;;;23.23;17.17;;;14.40;99.90;;;;;;5095442;28;20077;-79
2021/10/10 10:47:13;;;;;;;21.58;16.38;;;14.50;99.90;;;;;;5096304;28;20083;-78
2021/10/10 10:50:04;;;;;;;21.17;17.37;;;14.60;99.90;;;;;;5094575;28;20106;-78
2021/10/10 10:52:34;;;;;;;23.13;17.13;;;14.70;99.90;;;;;;5099753;28;20048;-78
2021/10/10 10:55:19;;;;;;;22.23;17.70;;;14.80;99.90;;;;;;5100779;28;20097;-78
2021/10/10 10:57:52;;;;;;;29.95;18.05;;;14.90;99.90;;;;;;5105657;28;20090;-77
2021/10/10 11:00:28;;;;;;;25.60;16.98;;;15.20;99.90;;;;;;5101819;28;20490;-78
2021/10/10 11:03:09;;;;;;;22.30;16.13;;;15.40;99.90;;;;;;5095042;28;20054;-78
2021/10/10 11:05:41;;;;;;;20.92;16.50;;;15.60;99.90;;;;;;5094594;28;20075;-78
2021/10/10 11:08:30;;;;;;;20.85;16.42;;;15.80;99.90;;;;;;5094239;28;20488;-78
2021/10/10 11:11:10;;;;;;;22.38;17.05;;;16.00;99.90;;;;;;5093437;28;20078;-78
2021/10/10 11:13:39;;;;;;;23.00;17.63;;;16.10;99.90;;;;;;5093032;28;20067;-78
2021/10/10 11:16:07;;;;;;;24.65;16.48;;;15.90;99.90;;;;;;5093491;28;20052;-79
2021/10/10 11:18:37;;;;;;;22.58;17.33;;;15.90;99.90;;;;;;5093662;28;20130;-79
2021/10/10 11:21:06;;;;;;;21.60;16.70;;;16.00;99.90;;;;;;5093431;28;20056;-77
2021/10/10 11:23:36;;;;;;;21.85;16.23;;;16.10;99.90;;;;;;5096206;28;20426;-78
2021/10/10 11:26:05;;;;;;;26.20;17.67;;;16.00;99.90;;;;;;5098146;28;20082;-79
2021/10/10 11:28:39;;;;;;;21.00;16.83;;;16.00;99.90;;;;;;5099030;28;20428;-78
2021/10/10 11:31:11;;;;;;;27.65;17.98;;;16.10;99.90;;;;;;5098040;28;20143;-79
2021/10/10 11:33:40;;;;;;;21.48;17.08;;;16.20;99.90;;;;;;5097021;28;20421;-78
2021/10/10 11:36:07;;;;;;;24.95;16.70;;;16.30;99.90;;;;;;5097064;28;20472;-78
2021/10/10 11:38:59;;;;;;;22.02;16.08;;;16.20;99.90;;;;;;5097193;28;20439;-78
2021/10/10 11:41:28;;;;;;;22.83;17.80;;;16.20;99.90;;;;;;5081755;28;20051;-78
2021/10/10 11:44:01;;;;;;;21.90;16.02;;;16.20;99.90;;;;;;5096302;28;20498;-78
2021/10/10 11:46:41;;;;;;;21.25;15.98;;;16.20;99.90;;;;;;5097155;28;20079;-78
2021/10/10 11:49:35;;;;;;;20.92;16.17;;;16.10;99.90;;;;;;5096662;28;20109;-78
2021/10/10 11:52:15;;;;;;;24.58;17.45;;;16.00;99.90;;;;;;5096210;28;20051;-78
2021/10/10 11:54:45;;;;;;;24.15;16.42;;;15.90;99.90;;;;;;5096919;28;20044;-79
2021/10/10 11:57:14;;;;;;;22.17;17.25;;;15.90;99.90;;;;;;5097712;28;20074;-79
2021/10/10 11:59:50;;;;;;;22.27;17.10;;;16.00;99.90;;;;;;5096945;28;20043;-78
2021/10/10 12:02:17;;;;;;;20.67;16.73;;;16.00;99.90;;;;;;5098675;28;20071;-77
2021/10/10 12:04:45;;;;;;;27.33;16.33;;;16.10;99.90;;;;;;5097787;28;20044;-79
2021/10/10 12:07:12;;;;;;;21.00;16.33;;;16.10;99.90;;;;;;5096836;28;20533;-78
2021/10/10 12:09:50;;;;;;;22.70;16.17;;;16.10;99.90;;;;;;5096798;28;20044;-77
2021/10/10 12:12:17;;;;;;;22.08;16.15;;;16.00;99.90;;;;;;5096821;28;20513;-77
2021/10/10 12:14:46;;;;;;;19.85;15.88;;;16.00;99.90;;;;;;5098090;28;20060;-78
2021/10/10 12:17:31;;;;;;;19.83;15.40;;;15.90;99.90;;;;;;5097835;28;20104;-78
2021/10/10 12:19:59;;;;;;;20.05;15.63;;;16.00;99.90;;;;;;5097535;28;20428;-78
2021/10/10 12:22:27;;;;;;;21.17;15.20;;;16.00;99.90;;;;;;5097696;28;20101;-78
2021/10/10 12:24:55;;;;;;;18.77;15.63;;;16.00;99.90;;;;;;5100378;28;20052;-78
2021/10/10 12:27:32;;;;;;;22.27;15.05;;;16.10;99.90;;;;;;5101009;28;20492;-79
2021/10/10 12:30:00;;;;;;;19.45;15.63;;;16.20;99.90;;;;;;5099038;28;20051;-79
2021/10/10 12:32:29;;;;;;;22.17;15.90;;;16.40;99.90;;;;;;5099065;28;20048;-79
2021/10/10 12:35:14;;;;;;;18.13;14.32;;;16.40;99.90;;;;;;5098801;28;20047;-80
2021/10/10 12:37:49;;;;;;;20.85;14.98;;;16.50;99.90;;;;;;5099228;28;20048;-79
2021/10/10 12:40:25;;;;;;;21.52;14.63;;;16.60;99.90;;;;;;5099579;28;20135;-79
2021/10/10 12:42:52;;;;;;;19.27;15.02;;;16.60;99.90;;;;;;5099755;28;20128;-78
2021/10/10 12:45:26;;;;;;;20.17;14.60;;;16.50;99.90;;;;;;5099945;28;20059;-79
2021/10/10 12:48:05;;;;;;;23.55;14.57;;;16.50;99.90;;;;;;5099105;28;20060;-79
2021/10/10 12:50:33;;;;;;;18.38;14.25;;;16.50;99.90;;;;;;5098348;28;20044;-79
2021/10/10 12:53:00;;;;;;;19.38;14.05;;;16.60;99.90;;;;;;5097895;28;20047;-79
2021/10/10 12:55:29;;;;;;;16.40;13.75;;;16.60;99.90;;;;;;5099231;28;20449;-79
2021/10/10 12:57:58;;;;;;;21.10;14.48;;;16.60;99.90;;;;;;5098618;28;20087;-79
2021/10/10 13:00:26;;;;;;;17.52;14.10;;;16.60;99.90;;;;;;5097710;28;20048;-78
2021/10/10 13:02:53;;;;;;;22.02;13.55;;;16.60;99.90;;;;;;5099038;28;20267;-78
2021/10/10 13:05:21;;;;;;;21.17;14.52;;;16.60;99.90;;;;;;5100591;28;20052;-79
2021/10/10 13:07:48;;;;;;;17.27;13.85;;;16.70;99.90;;;;;;5099369;28;20080;-79
2021/10/10 13:10:16;;;;;;;17.60;13.85;;;16.80;99.90;;;;;;5100468;28;20464;-79
2021/10/10 13:12:45;;;;;;;20.42;14.25;;;16.80;99.90;;;;;;5100138;28;20581;-79
2021/10/10 13:15:12;;;;;;;18.98;15.25;;;16.90;99.90;;;;;;5100214;28;20044;-79
2021/10/10 13:17:39;;;;;;;21.02;14.77;;;16.90;99.90;;;;;;5099920;28;20074;-79
2021/10/10 13:20:07;;;;;;;16.52;13.85;;;17.00;99.90;;;;;;5100033;28;20051;-80
2021/10/10 13:22:34;;;;;;;21.35;15.43;;;17.00;99.90;;;;;;5100769;28;20476;-79
2021/10/10 13:25:04;;;;;;;19.45;14.70;;;17.00;99.90;;;;;;5099925;28;20044;-80
2021/10/10 13:27:31;;;;;;;19.25;14.30;;;17.00;99.90;;;;;;5100172;28;20119;-78
2021/10/10 13:29:59;;;;;;;23.45;15.48;;;17.10;99.90;;;;;;5099830;28;20421;-81
2021/10/10 13:32:26;;;;;;;19.27;15.02;;;17.10;99.90;;;;;;5100082;28;20103;-80
2021/10/10 13:34:53;;;;;;;17.85;14.02;;;17.10;99.90;;;;;;5100294;28;20058;-81
2021/10/10 13:37:22;;;;;;;19.42;14.60;;;17.10;99.90;;;;;;5099906;28;20047;-79
2021/10/10 13:39:49;;;;;;;18.23;14.50;;;17.20;99.90;;;;;;5099303;28;20126;-80